sensor_id;sensor_type;location;lat;lon;timestamp;P1;durP1;ratioP1;P2;durP2;ratioP2
11608;SDS011;5860;52.018;8.536;2024-01-25T00:01:52;25.77;;;5.63;;
11608;SDS011;5860;52.018;8.536;2024-01-25T00:04:21;21.73;;;4.40;;
11608;SDS011;5860;52.018;8.536;2024-01-25T00:06:48;23.70;;;5.47;;
11608;SDS011;5860;52.018;8.536;2024-01-25T00:09:15;29.07;;;4.80;;
11608;SDS011;5860;52.018;8.536;2024-01-25T00:11:42;31.90;;;5.43;;
11608;SDS011;5860;52.018;8.536;2024-01-25T00:14:10;22.00;;;4.80;;
11608;SDS011;5860;52.018;8.536;2024-01-25T00:16:41;28.50;;;5.27;;
11608;SDS011;5860;52.018;8.536;2024-01-25T00:19:11;24.93;;;5.33;;
11608;SDS011;5860;52.018;8.536;2024-01-25T00:21:41;23.60;;;4.83;;
11608;SDS011;5860;52.018;8.536;2024-01-25T00:24:13;29.63;;;5.57;;
11608;SDS011;5860;52.018;8.536;2024-01-25T00:26:39;28.53;;;5.50;;
11608;SDS011;5860;52.018;8.536;2024-01-25T00:29:09;26.00;;;5.07;;
11608;SDS011;5860;52.018;8.536;2024-01-25T00:31:36;27.63;;;5.40;;
11608;SDS011;5860;52.018;8.536;2024-01-25T00:34:03;18.37;;;3.93;;
11608;SDS011;5860;52.018;8.536;2024-01-25T00:36:31;33.07;;;5.77;;
11608;SDS011;5860;52.018;8.536;2024-01-25T00:38:58;24.60;;;5.47;;
11608;SDS011;5860;52.018;8.536;2024-01-25T00:41:25;26.03;;;5.00;;
11608;SDS011;5860;52.018;8.536;2024-01-25T00:43:53;21.97;;;4.53;;
11608;SDS011;5860;52.018;8.536;2024-01-25T00:46:20;30.93;;;5.93;;
11608;SDS011;5860;52.018;8.536;2024-01-25T00:48:47;19.80;;;4.30;;
11608;SDS011;5860;52.018;8.536;2024-01-25T00:51:16;22.87;;;4.47;;
11608;SDS011;5860;52.018;8.536;2024-01-25T00:53:49;23.87;;;5.20;;
11608;SDS011;5860;52.018;8.536;2024-01-25T00:56:17;28.00;;;4.57;;
11608;SDS011;5860;52.018;8.536;2024-01-25T00:58:44;25.60;;;5.23;;
11608;SDS011;5860;52.018;8.536;2024-01-25T01:01:11;24.10;;;4.83;;
11608;SDS011;5860;52.018;8.536;2024-01-25T01:03:39;31.80;;;5.53;;
11608;SDS011;5860;52.018;8.536;2024-01-25T01:06:06;19.97;;;4.30;;
11608;SDS011;5860;52.018;8.536;2024-01-25T01:08:34;23.47;;;4.77;;
11608;SDS011;5860;52.018;8.536;2024-01-25T01:11:02;30.73;;;4.80;;
11608;SDS011;5860;52.018;8.536;2024-01-25T01:13:29;28.40;;;5.43;;
11608;SDS011;5860;52.018;8.536;2024-01-25T01:15:56;25.97;;;4.57;;
11608;SDS011;5860;52.018;8.536;2024-01-25T01:18:23;25.87;;;5.60;;
11608;SDS011;5860;52.018;8.536;2024-01-25T01:20:51;26.73;;;5.37;;
11608;SDS011;5860;52.018;8.536;2024-01-25T01:23:17;22.73;;;4.53;;
11608;SDS011;5860;52.018;8.536;2024-01-25T01:25:44;32.57;;;5.63;;
11608;SDS011;5860;52.018;8.536;2024-01-25T01:28:12;23.43;;;5.23;;
11608;SDS011;5860;52.018;8.536;2024-01-25T01:30:41;25.67;;;5.63;;
11608;SDS011;5860;52.018;8.536;2024-01-25T01:33:09;24.77;;;4.93;;
11608;SDS011;5860;52.018;8.536;2024-01-25T01:35:39;26.67;;;5.00;;
11608;SDS011;5860;52.018;8.536;2024-01-25T01:38:06;27.03;;;5.40;;
11608;SDS011;5860;52.018;8.536;2024-01-25T01:40:33;23.67;;;5.80;;
11608;SDS011;5860;52.018;8.536;2024-01-25T01:43:00;23.77;;;5.47;;
11608;SDS011;5860;52.018;8.536;2024-01-25T01:45:30;21.87;;;5.00;;
11608;SDS011;5860;52.018;8.536;2024-01-25T01:47:57;24.07;;;4.87;;
11608;SDS011;5860;52.018;8.536;2024-01-25T01:50:25;31.00;;;5.50;;
11608;SDS011;5860;52.018;8.536;2024-01-25T01:52:54;29.23;;;5.20;;
11608;SDS011;5860;52.018;8.536;2024-01-25T01:55:21;29.23;;;5.87;;
11608;SDS011;5860;52.018;8.536;2024-01-25T01:57:50;28.23;;;4.50;;
11608;SDS011;5860;52.018;8.536;2024-01-25T02:00:17;20.47;;;4.53;;
11608;SDS011;5860;52.018;8.536;2024-01-25T02:02:45;29.73;;;5.13;;
11608;SDS011;5860;52.018;8.536;2024-01-25T02:05:12;22.97;;;4.77;;
11608;SDS011;5860;52.018;8.536;2024-01-25T02:07:40;29.37;;;4.73;;
11608;SDS011;5860;52.018;8.536;2024-01-25T02:10:08;26.93;;;5.13;;
11608;SDS011;5860;52.018;8.536;2024-01-25T02:12:35;28.93;;;5.20;;
11608;SDS011;5860;52.018;8.536;2024-01-25T02:15:03;30.37;;;6.07;;
11608;SDS011;5860;52.018;8.536;2024-01-25T02:17:30;21.87;;;4.73;;
11608;SDS011;5860;52.018;8.536;2024-01-25T02:19:57;25.60;;;5.00;;
11608;SDS011;5860;52.018;8.536;2024-01-25T02:22:25;33.70;;;4.87;;
11608;SDS011;5860;52.018;8.536;2024-01-25T02:24:52;24.43;;;4.87;;
11608;SDS011;5860;52.018;8.536;2024-01-25T02:27:20;30.00;;;5.73;;
11608;SDS011;5860;52.018;8.536;2024-01-25T02:29:47;29.97;;;5.57;;
11608;SDS011;5860;52.018;8.536;2024-01-25T02:32:14;28.70;;;4.93;;
11608;SDS011;5860;52.018;8.536;2024-01-25T02:34:40;26.23;;;5.17;;
11608;SDS011;5860;52.018;8.536;2024-01-25T02:37:08;21.97;;;4.80;;
11608;SDS011;5860;52.018;8.536;2024-01-25T02:39:35;18.67;;;4.63;;
11608;SDS011;5860;52.018;8.536;2024-01-25T02:42:02;20.90;;;4.77;;
11608;SDS011;5860;52.018;8.536;2024-01-25T02:44:29;21.40;;;5.03;;
11608;SDS011;5860;52.018;8.536;2024-01-25T02:46:56;29.33;;;5.13;;
11608;SDS011;5860;52.018;8.536;2024-01-25T02:49:23;27.70;;;4.97;;
11608;SDS011;5860;52.018;8.536;2024-01-25T02:51:51;27.67;;;5.80;;
11608;SDS011;5860;52.018;8.536;2024-01-25T02:54:18;22.27;;;5.50;;
11608;SDS011;5860;52.018;8.536;2024-01-25T02:56:45;21.70;;;4.10;;
11608;SDS011;5860;52.018;8.536;2024-01-25T02:59:12;25.63;;;5.33;;
11608;SDS011;5860;52.018;8.536;2024-01-25T03:01:42;22.53;;;5.03;;
11608;SDS011;5860;52.018;8.536;2024-01-25T03:04:10;22.87;;;5.37;;
11608;SDS011;5860;52.018;8.536;2024-01-25T03:06:38;25.07;;;5.27;;
11608;SDS011;5860;52.018;8.536;2024-01-25T03:09:05;24.83;;;4.97;;
11608;SDS011;5860;52.018;8.536;2024-01-25T03:11:32;23.40;;;5.27;;
11608;SDS011;5860;52.018;8.536;2024-01-25T03:13:59;24.70;;;4.70;;
11608;SDS011;5860;52.018;8.536;2024-01-25T03:16:26;26.00;;;4.70;;
11608;SDS011;5860;52.018;8.536;2024-01-25T03:18:53;23.37;;;5.07;;
11608;SDS011;5860;52.018;8.536;2024-01-25T03:21:22;24.50;;;5.17;;
11608;SDS011;5860;52.018;8.536;2024-01-25T03:23:50;22.33;;;4.67;;
11608;SDS011;5860;52.018;8.536;2024-01-25T03:26:18;23.97;;;4.90;;
11608;SDS011;5860;52.018;8.536;2024-01-25T03:28:45;24.57;;;4.83;;
11608;SDS011;5860;52.018;8.536;2024-01-25T03:31:12;26.93;;;4.70;;
11608;SDS011;5860;52.018;8.536;2024-01-25T03:33:38;26.03;;;4.73;;
11608;SDS011;5860;52.018;8.536;2024-01-25T03:36:06;32.50;;;4.77;;
11608;SDS011;5860;52.018;8.536;2024-01-25T03:38:33;23.80;;;4.70;;
11608;SDS011;5860;52.018;8.536;2024-01-25T03:41:00;33.87;;;5.17;;
11608;SDS011;5860;52.018;8.536;2024-01-25T03:43:27;19.50;;;3.67;;
11608;SDS011;5860;52.018;8.536;2024-01-25T03:46:08;32.93;;;5.33;;
11608;SDS011;5860;52.018;8.536;2024-01-25T03:48:35;25.33;;;4.47;;
11608;SDS011;5860;52.018;8.536;2024-01-25T03:51:02;23.73;;;5.00;;
11608;SDS011;5860;52.018;8.536;2024-01-25T03:53:29;22.13;;;4.87;;
11608;SDS011;5860;52.018;8.536;2024-01-25T03:55:56;25.50;;;4.40;;
11608;SDS011;5860;52.018;8.536;2024-01-25T03:58:23;27.97;;;5.13;;
11608;SDS011;5860;52.018;8.536;2024-01-25T04:00:50;24.97;;;5.33;;
11608;SDS011;5860;52.018;8.536;2024-01-25T04:03:17;27.57;;;5.53;;
11608;SDS011;5860;52.018;8.536;2024-01-25T04:05:44;22.80;;;4.80;;
11608;SDS011;5860;52.018;8.536;2024-01-25T04:08:12;23.20;;;5.23;;
11608;SDS011;5860;52.018;8.536;2024-01-25T04:10:39;31.30;;;5.57;;
11608;SDS011;5860;52.018;8.536;2024-01-25T04:13:05;20.23;;;5.03;;
11608;SDS011;5860;52.018;8.536;2024-01-25T04:15:34;27.43;;;5.50;;
11608;SDS011;5860;52.018;8.536;2024-01-25T04:18:01;33.43;;;5.90;;
11608;SDS011;5860;52.018;8.536;2024-01-25T04:20:28;30.63;;;5.97;;
11608;SDS011;5860;52.018;8.536;2024-01-25T04:22:56;26.57;;;5.57;;
11608;SDS011;5860;52.018;8.536;2024-01-25T04:25:23;29.17;;;5.43;;
11608;SDS011;5860;52.018;8.536;2024-01-25T04:27:50;33.50;;;7.20;;
11608;SDS011;5860;52.018;8.536;2024-01-25T04:30:17;31.13;;;6.10;;
11608;SDS011;5860;52.018;8.536;2024-01-25T04:32:44;29.93;;;5.27;;
11608;SDS011;5860;52.018;8.536;2024-01-25T04:35:12;29.57;;;5.00;;
11608;SDS011;5860;52.018;8.536;2024-01-25T04:37:39;27.73;;;6.70;;
11608;SDS011;5860;52.018;8.536;2024-01-25T04:40:06;23.83;;;4.73;;
11608;SDS011;5860;52.018;8.536;2024-01-25T04:42:34;22.77;;;4.37;;
11608;SDS011;5860;52.018;8.536;2024-01-25T04:45:04;24.13;;;4.43;;
11608;SDS011;5860;52.018;8.536;2024-01-25T04:47:31;23.57;;;4.23;;
11608;SDS011;5860;52.018;8.536;2024-01-25T04:49:58;21.57;;;4.30;;
11608;SDS011;5860;52.018;8.536;2024-01-25T04:52:25;26.53;;;5.07;;
11608;SDS011;5860;52.018;8.536;2024-01-25T04:54:53;25.93;;;4.97;;
11608;SDS011;5860;52.018;8.536;2024-01-25T04:57:22;24.77;;;4.27;;
11608;SDS011;5860;52.018;8.536;2024-01-25T04:59:50;24.33;;;5.40;;
11608;SDS011;5860;52.018;8.536;2024-01-25T05:02:17;22.70;;;4.73;;
11608;SDS011;5860;52.018;8.536;2024-01-25T05:04:46;26.80;;;4.23;;
11608;SDS011;5860;52.018;8.536;2024-01-25T05:07:13;27.97;;;4.73;;
11608;SDS011;5860;52.018;8.536;2024-01-25T05:09:41;29.20;;;4.97;;
11608;SDS011;5860;52.018;8.536;2024-01-25T05:12:07;32.13;;;5.90;;
11608;SDS011;5860;52.018;8.536;2024-01-25T05:14:34;26.10;;;4.80;;
11608;SDS011;5860;52.018;8.536;2024-01-25T05:17:01;27.67;;;5.70;;
11608;SDS011;5860;52.018;8.536;2024-01-25T05:19:28;28.87;;;5.43;;
11608;SDS011;5860;52.018;8.536;2024-01-25T05:21:55;23.03;;;5.40;;
11608;SDS011;5860;52.018;8.536;2024-01-25T05:24:22;21.33;;;4.60;;
11608;SDS011;5860;52.018;8.536;2024-01-25T05:26:49;24.37;;;5.23;;
11608;SDS011;5860;52.018;8.536;2024-01-25T05:29:16;25.50;;;4.47;;
11608;SDS011;5860;52.018;8.536;2024-01-25T05:31:43;26.97;;;4.40;;
11608;SDS011;5860;52.018;8.536;2024-01-25T05:34:16;31.63;;;5.07;;
11608;SDS011;5860;52.018;8.536;2024-01-25T05:36:46;31.07;;;4.37;;
11608;SDS011;5860;52.018;8.536;2024-01-25T05:39:13;29.60;;;4.97;;
11608;SDS011;5860;52.018;8.536;2024-01-25T05:41:41;27.87;;;4.93;;
11608;SDS011;5860;52.018;8.536;2024-01-25T05:44:12;19.40;;;4.17;;
11608;SDS011;5860;52.018;8.536;2024-01-25T05:46:39;32.73;;;5.03;;
11608;SDS011;5860;52.018;8.536;2024-01-25T05:49:06;27.10;;;5.07;;
11608;SDS011;5860;52.018;8.536;2024-01-25T05:51:33;24.20;;;4.97;;
11608;SDS011;5860;52.018;8.536;2024-01-25T05:54:00;27.87;;;5.50;;
11608;SDS011;5860;52.018;8.536;2024-01-25T05:56:27;32.63;;;5.67;;
11608;SDS011;5860;52.018;8.536;2024-01-25T05:58:54;29.67;;;5.23;;
11608;SDS011;5860;52.018;8.536;2024-01-25T06:01:21;34.47;;;5.43;;
11608;SDS011;5860;52.018;8.536;2024-01-25T06:03:48;35.20;;;6.17;;
11608;SDS011;5860;52.018;8.536;2024-01-25T06:06:16;22.20;;;4.07;;
11608;SDS011;5860;52.018;8.536;2024-01-25T06:08:43;30.67;;;5.30;;
11608;SDS011;5860;52.018;8.536;2024-01-25T06:11:26;28.97;;;5.37;;
11608;SDS011;5860;52.018;8.536;2024-01-25T06:13:56;27.90;;;5.07;;
11608;SDS011;5860;52.018;8.536;2024-01-25T06:16:23;20.13;;;4.23;;
11608;SDS011;5860;52.018;8.536;2024-01-25T06:18:50;35.83;;;5.83;;
11608;SDS011;5860;52.018;8.536;2024-01-25T06:21:17;29.60;;;5.53;;
11608;SDS011;5860;52.018;8.536;2024-01-25T06:23:44;26.60;;;5.90;;
11608;SDS011;5860;52.018;8.536;2024-01-25T06:26:11;30.60;;;4.90;;
11608;SDS011;5860;52.018;8.536;2024-01-25T06:28:37;34.10;;;6.43;;
11608;SDS011;5860;52.018;8.536;2024-01-25T06:31:09;26.60;;;4.90;;
11608;SDS011;5860;52.018;8.536;2024-01-25T06:33:38;26.27;;;5.40;;
11608;SDS011;5860;52.018;8.536;2024-01-25T06:36:05;28.07;;;5.17;;
11608;SDS011;5860;52.018;8.536;2024-01-25T06:38:33;27.13;;;5.80;;
11608;SDS011;5860;52.018;8.536;2024-01-25T06:40:59;26.43;;;5.20;;
11608;SDS011;5860;52.018;8.536;2024-01-25T06:43:26;34.70;;;5.70;;
11608;SDS011;5860;52.018;8.536;2024-01-25T06:45:53;32.93;;;5.47;;
11608;SDS011;5860;52.018;8.536;2024-01-25T06:48:20;27.43;;;5.37;;
11608;SDS011;5860;52.018;8.536;2024-01-25T06:50:47;23.77;;;5.20;;
11608;SDS011;5860;52.018;8.536;2024-01-25T06:53:17;25.97;;;4.83;;
11608;SDS011;5860;52.018;8.536;2024-01-25T06:55:44;36.43;;;6.07;;
11608;SDS011;5860;52.018;8.536;2024-01-25T06:58:10;35.47;;;5.20;;
11608;SDS011;5860;52.018;8.536;2024-01-25T07:00:38;26.60;;;5.60;;
11608;SDS011;5860;52.018;8.536;2024-01-25T07:03:10;35.87;;;6.03;;
11608;SDS011;5860;52.018;8.536;2024-01-25T07:05:38;28.70;;;5.93;;
11608;SDS011;5860;52.018;8.536;2024-01-25T07:08:05;28.43;;;5.63;;
11608;SDS011;5860;52.018;8.536;2024-01-25T07:10:33;32.23;;;6.47;;
11608;SDS011;5860;52.018;8.536;2024-01-25T07:13:01;26.37;;;6.00;;
11608;SDS011;5860;52.018;8.536;2024-01-25T07:15:28;27.73;;;5.27;;
11608;SDS011;5860;52.018;8.536;2024-01-25T07:17:55;25.60;;;5.03;;
11608;SDS011;5860;52.018;8.536;2024-01-25T07:20:22;33.53;;;5.40;;
11608;SDS011;5860;52.018;8.536;2024-01-25T07:22:50;30.73;;;5.57;;
11608;SDS011;5860;52.018;8.536;2024-01-25T07:25:17;24.10;;;4.53;;
11608;SDS011;5860;52.018;8.536;2024-01-25T07:27:44;29.57;;;5.93;;
11608;SDS011;5860;52.018;8.536;2024-01-25T07:30:12;27.90;;;5.83;;
11608;SDS011;5860;52.018;8.536;2024-01-25T07:32:40;33.43;;;6.00;;
11608;SDS011;5860;52.018;8.536;2024-01-25T07:35:12;26.03;;;6.33;;
11608;SDS011;5860;52.018;8.536;2024-01-25T07:37:39;25.50;;;4.67;;
11608;SDS011;5860;52.018;8.536;2024-01-25T07:40:10;22.37;;;5.13;;
11608;SDS011;5860;52.018;8.536;2024-01-25T07:42:37;23.83;;;4.67;;
11608;SDS011;5860;52.018;8.536;2024-01-25T07:45:04;29.50;;;4.77;;
11608;SDS011;5860;52.018;8.536;2024-01-25T07:47:31;25.03;;;5.23;;
11608;SDS011;5860;52.018;8.536;2024-01-25T07:49:59;31.57;;;6.20;;
11608;SDS011;5860;52.018;8.536;2024-01-25T07:52:26;30.03;;;5.00;;
11608;SDS011;5860;52.018;8.536;2024-01-25T07:54:53;33.27;;;5.83;;
11608;SDS011;5860;52.018;8.536;2024-01-25T07:57:20;30.47;;;5.87;;
11608;SDS011;5860;52.018;8.536;2024-01-25T07:59:47;32.20;;;5.83;;
11608;SDS011;5860;52.018;8.536;2024-01-25T08:02:15;30.37;;;6.57;;
11608;SDS011;5860;52.018;8.536;2024-01-25T08:04:46;29.10;;;6.53;;
11608;SDS011;5860;52.018;8.536;2024-01-25T08:07:13;37.90;;;6.23;;
11608;SDS011;5860;52.018;8.536;2024-01-25T08:09:40;35.43;;;6.57;;
11608;SDS011;5860;52.018;8.536;2024-01-25T08:12:07;30.87;;;6.37;;
11608;SDS011;5860;52.018;8.536;2024-01-25T08:14:35;25.43;;;5.53;;
11608;SDS011;5860;52.018;8.536;2024-01-25T08:17:02;32.97;;;5.73;;
11608;SDS011;5860;52.018;8.536;2024-01-25T08:19:29;26.07;;;5.80;;
11608;SDS011;5860;52.018;8.536;2024-01-25T08:21:56;31.33;;;6.37;;
11608;SDS011;5860;52.018;8.536;2024-01-25T08:24:23;38.67;;;6.30;;
11608;SDS011;5860;52.018;8.536;2024-01-25T08:26:50;37.20;;;6.17;;
11608;SDS011;5860;52.018;8.536;2024-01-25T08:29:17;32.37;;;6.47;;
11608;SDS011;5860;52.018;8.536;2024-01-25T08:31:44;28.00;;;6.27;;
11608;SDS011;5860;52.018;8.536;2024-01-25T08:34:12;24.13;;;6.37;;
11608;SDS011;5860;52.018;8.536;2024-01-25T08:36:41;27.63;;;5.80;;
11608;SDS011;5860;52.018;8.536;2024-01-25T08:39:08;31.53;;;6.37;;
11608;SDS011;5860;52.018;8.536;2024-01-25T08:41:35;31.10;;;6.27;;
11608;SDS011;5860;52.018;8.536;2024-01-25T08:44:05;31.27;;;7.00;;
11608;SDS011;5860;52.018;8.536;2024-01-25T08:46:32;36.10;;;7.30;;
11608;SDS011;5860;52.018;8.536;2024-01-25T08:49:00;32.40;;;5.77;;
11608;SDS011;5860;52.018;8.536;2024-01-25T08:51:28;27.87;;;5.70;;
11608;SDS011;5860;52.018;8.536;2024-01-25T08:53:55;33.20;;;7.83;;
11608;SDS011;5860;52.018;8.536;2024-01-25T08:56:22;32.27;;;6.33;;
11608;SDS011;5860;52.018;8.536;2024-01-25T08:58:49;33.30;;;6.90;;
11608;SDS011;5860;52.018;8.536;2024-01-25T09:01:16;27.47;;;6.23;;
11608;SDS011;5860;52.018;8.536;2024-01-25T09:03:43;32.27;;;6.87;;
11608;SDS011;5860;52.018;8.536;2024-01-25T09:06:10;27.17;;;6.00;;
11608;SDS011;5860;52.018;8.536;2024-01-25T09:08:38;33.40;;;6.90;;
11608;SDS011;5860;52.018;8.536;2024-01-25T09:11:05;41.63;;;7.37;;
11608;SDS011;5860;52.018;8.536;2024-01-25T09:13:33;31.83;;;6.13;;
11608;SDS011;5860;52.018;8.536;2024-01-25T09:16:11;30.50;;;7.00;;
11608;SDS011;5860;52.018;8.536;2024-01-25T09:18:38;39.57;;;6.10;;
11608;SDS011;5860;52.018;8.536;2024-01-25T09:21:07;30.73;;;6.53;;
11608;SDS011;5860;52.018;8.536;2024-01-25T09:23:34;29.93;;;6.80;;
11608;SDS011;5860;52.018;8.536;2024-01-25T09:26:01;30.27;;;6.40;;
11608;SDS011;5860;52.018;8.536;2024-01-25T09:28:28;34.67;;;7.10;;
11608;SDS011;5860;52.018;8.536;2024-01-25T09:30:55;27.60;;;6.17;;
11608;SDS011;5860;52.018;8.536;2024-01-25T09:33:23;40.77;;;6.87;;
11608;SDS011;5860;52.018;8.536;2024-01-25T09:35:50;26.00;;;5.83;;
11608;SDS011;5860;52.018;8.536;2024-01-25T09:38:18;22.33;;;5.93;;
11608;SDS011;5860;52.018;8.536;2024-01-25T09:40:45;36.87;;;6.63;;
11608;SDS011;5860;52.018;8.536;2024-01-25T09:43:13;27.57;;;5.40;;
11608;SDS011;5860;52.018;8.536;2024-01-25T09:45:41;32.07;;;6.60;;
11608;SDS011;5860;52.018;8.536;2024-01-25T09:48:08;28.93;;;6.70;;
11608;SDS011;5860;52.018;8.536;2024-01-25T09:50:41;35.03;;;7.20;;
11608;SDS011;5860;52.018;8.536;2024-01-25T09:53:11;34.47;;;6.93;;
11608;SDS011;5860;52.018;8.536;2024-01-25T09:56:09;30.10;;;7.03;;
11608;SDS011;5860;52.018;8.536;2024-01-25T09:58:39;41.40;;;12.30;;
11608;SDS011;5860;52.018;8.536;2024-01-25T10:01:09;42.13;;;9.07;;
11608;SDS011;5860;52.018;8.536;2024-01-25T10:03:37;37.63;;;7.33;;
11608;SDS011;5860;52.018;8.536;2024-01-25T10:06:06;34.77;;;6.67;;
11608;SDS011;5860;52.018;8.536;2024-01-25T10:08:35;29.80;;;6.47;;
11608;SDS011;5860;52.018;8.536;2024-01-25T10:11:03;28.27;;;6.20;;
11608;SDS011;5860;52.018;8.536;2024-01-25T10:13:30;24.30;;;5.93;;
11608;SDS011;5860;52.018;8.536;2024-01-25T10:15:58;32.90;;;7.00;;
11608;SDS011;5860;52.018;8.536;2024-01-25T10:18:26;32.40;;;6.50;;
11608;SDS011;5860;52.018;8.536;2024-01-25T10:20:56;34.83;;;6.87;;
11608;SDS011;5860;52.018;8.536;2024-01-25T10:23:28;31.23;;;6.53;;
11608;SDS011;5860;52.018;8.536;2024-01-25T10:25:58;40.00;;;12.23;;
11608;SDS011;5860;52.018;8.536;2024-01-25T10:28:26;32.53;;;6.27;;
11608;SDS011;5860;52.018;8.536;2024-01-25T10:30:56;27.73;;;6.40;;
11608;SDS011;5860;52.018;8.536;2024-01-25T10:33:28;31.47;;;6.10;;
11608;SDS011;5860;52.018;8.536;2024-01-25T10:35:56;29.10;;;6.37;;
11608;SDS011;5860;52.018;8.536;2024-01-25T10:38:33;27.30;;;6.63;;
11608;SDS011;5860;52.018;8.536;2024-01-25T10:41:03;25.73;;;6.23;;
11608;SDS011;5860;52.018;8.536;2024-01-25T10:43:32;34.77;;;6.73;;
11608;SDS011;5860;52.018;8.536;2024-01-25T10:46:00;30.03;;;6.83;;
11608;SDS011;5860;52.018;8.536;2024-01-25T10:48:30;32.40;;;6.93;;
11608;SDS011;5860;52.018;8.536;2024-01-25T10:50:58;36.00;;;8.23;;
11608;SDS011;5860;52.018;8.536;2024-01-25T10:53:33;33.87;;;7.17;;
11608;SDS011;5860;52.018;8.536;2024-01-25T10:56:01;36.03;;;7.70;;
11608;SDS011;5860;52.018;8.536;2024-01-25T10:58:30;29.23;;;6.83;;
11608;SDS011;5860;52.018;8.536;2024-01-25T11:01:07;29.40;;;6.60;;
11608;SDS011;5860;52.018;8.536;2024-01-25T11:03:41;28.83;;;7.63;;
11608;SDS011;5860;52.018;8.536;2024-01-25T11:06:14;29.43;;;6.50;;
11608;SDS011;5860;52.018;8.536;2024-01-25T11:08:41;28.33;;;7.03;;
11608;SDS011;5860;52.018;8.536;2024-01-25T11:11:10;26.60;;;6.60;;
11608;SDS011;5860;52.018;8.536;2024-01-25T11:13:39;27.63;;;5.97;;
11608;SDS011;5860;52.018;8.536;2024-01-25T11:16:14;36.67;;;7.67;;
11608;SDS011;5860;52.018;8.536;2024-01-25T11:21:21;29.57;;;6.67;;
11608;SDS011;5860;52.018;8.536;2024-01-25T11:23:58;26.53;;;6.30;;
11608;SDS011;5860;52.018;8.536;2024-01-25T11:26:28;29.23;;;6.60;;
11608;SDS011;5860;52.018;8.536;2024-01-25T11:28:58;31.83;;;7.57;;
11608;SDS011;5860;52.018;8.536;2024-01-25T11:31:28;24.83;;;5.97;;
11608;SDS011;5860;52.018;8.536;2024-01-25T11:33:59;30.97;;;7.10;;
11608;SDS011;5860;52.018;8.536;2024-01-25T11:36:27;31.50;;;6.50;;
11608;SDS011;5860;52.018;8.536;2024-01-25T11:38:56;36.87;;;6.73;;
11608;SDS011;5860;52.018;8.536;2024-01-25T11:41:24;30.53;;;6.77;;
11608;SDS011;5860;52.018;8.536;2024-01-25T11:43:52;26.93;;;6.37;;
11608;SDS011;5860;52.018;8.536;2024-01-25T11:46:19;27.10;;;6.27;;
11608;SDS011;5860;52.018;8.536;2024-01-25T11:48:46;27.13;;;6.43;;
11608;SDS011;5860;52.018;8.536;2024-01-25T11:51:13;26.63;;;6.67;;
11608;SDS011;5860;52.018;8.536;2024-01-25T11:53:41;26.97;;;6.37;;
11608;SDS011;5860;52.018;8.536;2024-01-25T11:56:09;27.37;;;5.93;;
11608;SDS011;5860;52.018;8.536;2024-01-25T11:58:41;27.83;;;6.83;;
11608;SDS011;5860;52.018;8.536;2024-01-25T12:01:10;33.93;;;6.83;;
11608;SDS011;5860;52.018;8.536;2024-01-25T12:03:39;26.77;;;6.93;;
11608;SDS011;5860;52.018;8.536;2024-01-25T12:06:07;36.90;;;7.53;;
11608;SDS011;5860;52.018;8.536;2024-01-25T12:08:38;26.13;;;6.00;;
11608;SDS011;5860;52.018;8.536;2024-01-25T12:11:08;23.57;;;5.53;;
11608;SDS011;5860;52.018;8.536;2024-01-25T12:13:36;26.20;;;6.30;;
11608;SDS011;5860;52.018;8.536;2024-01-25T12:16:06;27.37;;;7.20;;
11608;SDS011;5860;52.018;8.536;2024-01-25T12:18:35;33.17;;;7.93;;
11608;SDS011;5860;52.018;8.536;2024-01-25T12:21:04;26.30;;;7.53;;
11608;SDS011;5860;52.018;8.536;2024-01-25T12:23:35;28.87;;;7.30;;
11608;SDS011;5860;52.018;8.536;2024-01-25T12:26:06;34.87;;;7.50;;
11608;SDS011;5860;52.018;8.536;2024-01-25T12:28:35;31.20;;;6.90;;
11608;SDS011;5860;52.018;8.536;2024-01-25T12:31:03;25.37;;;8.10;;
11608;SDS011;5860;52.018;8.536;2024-01-25T12:33:32;30.53;;;9.73;;
11608;SDS011;5860;52.018;8.536;2024-01-25T12:36:03;28.60;;;8.43;;
11608;SDS011;5860;52.018;8.536;2024-01-25T12:38:31;27.20;;;6.10;;
11608;SDS011;5860;52.018;8.536;2024-01-25T12:41:02;32.50;;;7.67;;
11608;SDS011;5860;52.018;8.536;2024-01-25T12:43:29;27.60;;;6.87;;
11608;SDS011;5860;52.018;8.536;2024-01-25T12:45:57;28.13;;;7.33;;
11608;SDS011;5860;52.018;8.536;2024-01-25T12:48:42;22.87;;;6.40;;
11608;SDS011;5860;52.018;8.536;2024-01-25T12:51:10;31.40;;;6.37;;
11608;SDS011;5860;52.018;8.536;2024-01-25T12:53:37;23.73;;;5.87;;
11608;SDS011;5860;52.018;8.536;2024-01-25T12:56:04;22.83;;;7.17;;
11608;SDS011;5860;52.018;8.536;2024-01-25T12:58:32;24.53;;;5.70;;
11608;SDS011;5860;52.018;8.536;2024-01-25T13:00:59;24.33;;;6.40;;
11608;SDS011;5860;52.018;8.536;2024-01-25T13:03:26;28.87;;;6.53;;
11608;SDS011;5860;52.018;8.536;2024-01-25T13:05:54;33.80;;;6.83;;
11608;SDS011;5860;52.018;8.536;2024-01-25T13:08:21;26.63;;;7.50;;
11608;SDS011;5860;52.018;8.536;2024-01-25T13:10:48;35.10;;;7.43;;
11608;SDS011;5860;52.018;8.536;2024-01-25T13:13:16;25.10;;;6.53;;
11608;SDS011;5860;52.018;8.536;2024-01-25T13:15:43;27.67;;;6.83;;
11608;SDS011;5860;52.018;8.536;2024-01-25T13:18:10;26.90;;;7.13;;
11608;SDS011;5860;52.018;8.536;2024-01-25T13:20:37;23.53;;;6.17;;
11608;SDS011;5860;52.018;8.536;2024-01-25T13:23:07;32.90;;;6.50;;
11608;SDS011;5860;52.018;8.536;2024-01-25T13:25:35;26.70;;;6.87;;
11608;SDS011;5860;52.018;8.536;2024-01-25T13:28:02;33.23;;;6.73;;
11608;SDS011;5860;52.018;8.536;2024-01-25T13:30:29;30.47;;;6.77;;
11608;SDS011;5860;52.018;8.536;2024-01-25T13:32:56;28.97;;;7.00;;
11608;SDS011;5860;52.018;8.536;2024-01-25T13:35:24;31.27;;;7.47;;
11608;SDS011;5860;52.018;8.536;2024-01-25T13:37:51;32.90;;;7.30;;
11608;SDS011;5860;52.018;8.536;2024-01-25T13:40:18;30.73;;;7.17;;
11608;SDS011;5860;52.018;8.536;2024-01-25T13:42:46;28.10;;;7.20;;
11608;SDS011;5860;52.018;8.536;2024-01-25T13:45:14;33.77;;;7.53;;
11608;SDS011;5860;52.018;8.536;2024-01-25T13:47:41;36.70;;;8.40;;
11608;SDS011;5860;52.018;8.536;2024-01-25T13:50:08;34.40;;;8.90;;
11608;SDS011;5860;52.018;8.536;2024-01-25T13:52:36;30.93;;;7.70;;
11608;SDS011;5860;52.018;8.536;2024-01-25T13:55:03;35.73;;;9.07;;
11608;SDS011;5860;52.018;8.536;2024-01-25T13:57:30;33.93;;;8.30;;
11608;SDS011;5860;52.018;8.536;2024-01-25T13:59:58;31.07;;;8.00;;
11608;SDS011;5860;52.018;8.536;2024-01-25T14:02:28;28.10;;;9.07;;
11608;SDS011;5860;52.018;8.536;2024-01-25T14:04:55;29.27;;;8.97;;
11608;SDS011;5860;52.018;8.536;2024-01-25T14:07:22;32.33;;;9.30;;
11608;SDS011;5860;52.018;8.536;2024-01-25T14:09:49;33.43;;;9.47;;
11608;SDS011;5860;52.018;8.536;2024-01-25T14:12:19;32.77;;;8.80;;
11608;SDS011;5860;52.018;8.536;2024-01-25T14:14:47;37.37;;;10.00;;
11608;SDS011;5860;52.018;8.536;2024-01-25T14:17:14;34.87;;;10.60;;
11608;SDS011;5860;52.018;8.536;2024-01-25T14:19:41;38.50;;;11.40;;
11608;SDS011;5860;52.018;8.536;2024-01-25T14:22:09;36.87;;;11.27;;
11608;SDS011;5860;52.018;8.536;2024-01-25T14:24:54;44.23;;;12.33;;
11608;SDS011;5860;52.018;8.536;2024-01-25T14:27:22;36.13;;;11.80;;
11608;SDS011;5860;52.018;8.536;2024-01-25T14:29:50;35.43;;;11.87;;
11608;SDS011;5860;52.018;8.536;2024-01-25T14:32:18;44.17;;;13.50;;
11608;SDS011;5860;52.018;8.536;2024-01-25T14:34:48;45.60;;;14.33;;
11608;SDS011;5860;52.018;8.536;2024-01-25T14:37:16;38.27;;;13.50;;
11608;SDS011;5860;52.018;8.536;2024-01-25T14:39:43;37.37;;;13.17;;
11608;SDS011;5860;52.018;8.536;2024-01-25T14:42:28;43.47;;;13.10;;
11608;SDS011;5860;52.018;8.536;2024-01-25T14:44:55;42.90;;;13.80;;
11608;SDS011;5860;52.018;8.536;2024-01-25T14:47:22;47.50;;;14.80;;
11608;SDS011;5860;52.018;8.536;2024-01-25T14:49:49;39.83;;;14.77;;
11608;SDS011;5860;52.018;8.536;2024-01-25T14:52:18;43.17;;;14.43;;
11608;SDS011;5860;52.018;8.536;2024-01-25T14:54:45;51.07;;;14.10;;
11608;SDS011;5860;52.018;8.536;2024-01-25T14:57:12;40.80;;;13.40;;